Accueil
METAR-TAF:

METAR-TAF

Aéroports :

Schwäbisch Hall, Allemagne

latitude: 49-07-06N, longitude: 9-47-02E, altitude: 398 m

Observation

Le bulletin a été fait il y a 14 minutes, à 12:20 UTC
Température -1°C
Humidité 64%
Pression 1016 hPa
Visibilité 10 km ou plus
Quelques nuages à une hauteur de 2900 ft

METAR: EDTY 231220Z /////KT 9999 FEW029 M01/M07 Q1016

Heure: 13:34 (12:34 UTC)

Prévision

Le bulletin a été fait il y a 1 heure et 34 minutes, à 11:00 UTC
Prévision valable du 23 à 12 UTC au 23 à 21 UTC
Vent 10 kt de est/nord-est
Visibilité: 9000 m
Quelques nuages à une hauteur de 2500 ft

TAF: EDTY 231100Z 2312/2321 06010KT 9000 FEW025

Observations et prévisions météorologiques de plus de 4000 aéroports (messages METAR et TAF).

Les stations disponibles sont représentées par des disques jaunes et rouges sur la carte.

Passer la souris dessus pour voir le nom de la station.

Cliquer dessus pour voir les observations et prévisions météorologiques.

Pour changer de carte: cliquez sur les boutons verts avec une croix noire pour zoomer, sur le bouton vert avec un tiret pour effectuer un zoom arrière, ou sur les flèches vertes pour les cartes adjacentes.


METAR-TAF: